DAH6179 DAAG-LFLL
Flight info
| Callsign | DAH6179 |
|---|---|
| Flight time | 1h 22m |
| Altitude | 36000 |
| Route | PECES DCT MAMOM DCT ELTAN DCT MHN DCT MEROS DCT LAPIT DCT CHELY DCT LUMAS DCT SOFFY DCT MRM DCT MTL |
| Aircraft | A339/H-SADE1E2E3GHIJ3J5M1P2RWXY/LB2D1 |
Departure
| Time | 2026-05-04 10:33 |
|---|---|
| Airport | Houari Boumediene Airport (DAAG) |
Arrival
| Time | 2026-05-04 11:55 |
|---|---|
| Airport | Lyon Saint-Exupéry Airport (LFLL) |
| Time | Latitude | Longitude | Altitude | Speed | Heading |
|---|---|---|---|---|---|
| 2026-05-04 10:19 | 36.69562 | 3.20242 | 76 ft | 0 kts | 1° |
| 2026-05-04 10:26 | 36.69556 | 3.20242 | 76 ft | 3 kts | 1° |
| 2026-05-04 10:26 | 36.69546 | 3.20242 | 65 ft | 0 kts | 12° |
| 2026-05-04 10:26 | 36.69522 | 3.20233 | 68 ft | 8 kts | 36° |
| 2026-05-04 10:27 | 36.69492 | 3.20173 | 65 ft | 0 kts | 95° |
| 2026-05-04 10:29 | 36.69490 | 3.20183 | 65 ft | 5 kts | 100° |
| 2026-05-04 10:29 | 36.69455 | 3.20250 | 70 ft | 12 kts | 110° |
| 2026-05-04 10:29 | 36.69446 | 3.20358 | 69 ft | 14 kts | 93° |
| 2026-05-04 10:30 | 36.69443 | 3.20493 | 76 ft | 17 kts | 91° |
| 2026-05-04 10:30 | 36.69440 | 3.20646 | 69 ft | 18 kts | 91° |
| 2026-05-04 10:30 | 36.69437 | 3.20811 | 68 ft | 20 kts | 91° |
| 2026-05-04 10:30 | 36.69431 | 3.20835 | 66 ft | 1 kts | 115° |
| 2026-05-04 10:31 | 36.69423 | 3.20847 | 70 ft | 7 kts | 124° |
| 2026-05-04 10:31 | 36.69343 | 3.20896 | 73 ft | 15 kts | 163° |
| 2026-05-04 10:32 | 36.69143 | 3.19695 | 84 ft | 147 kts | 271° |
| 2026-05-04 10:33 | 36.69168 | 3.18198 | 326 ft | 190 kts | 274° |
| 2026-05-04 10:33 | 36.69191 | 3.16494 | 1031 ft | 202 kts | 272° |
| 2026-05-04 10:33 | 36.69207 | 3.14680 | 1660 ft | 219 kts | 270° |
| 2026-05-04 10:33 | 36.69332 | 3.12722 | 2260 ft | 229 kts | 275° |
| 2026-05-04 10:34 | 36.69885 | 3.11016 | 2915 ft | 206 kts | 309° |
| 2026-05-04 10:34 | 36.71138 | 3.10162 | 3258 ft | 226 kts | 349° |
| 2026-05-04 10:34 | 36.72799 | 3.10390 | 3566 ft | 255 kts | 17° |
| 2026-05-04 10:34 | 36.74509 | 3.11239 | 3944 ft | 276 kts | 24° |
| 2026-05-04 10:35 | 36.76296 | 3.12280 | 4417 ft | 289 kts | 23° |
| 2026-05-04 10:35 | 36.78158 | 3.13263 | 5165 ft | 291 kts | 20° |
| 2026-05-04 10:35 | 36.80052 | 3.14188 | 5935 ft | 293 kts | 18° |
| 2026-05-04 10:35 | 36.81972 | 3.15094 | 6666 ft | 297 kts | 17° |
| 2026-05-04 10:36 | 36.83921 | 3.15999 | 7375 ft | 300 kts | 17° |
| 2026-05-04 10:36 | 36.85887 | 3.16915 | 8116 ft | 303 kts | 17° |
| 2026-05-04 10:36 | 36.87850 | 3.17833 | 8837 ft | 307 kts | 16° |
| 2026-05-04 10:36 | 36.89852 | 3.18775 | 9608 ft | 310 kts | 16° |
| 2026-05-04 10:37 | 36.91884 | 3.19732 | 10304 ft | 314 kts | 16° |
| 2026-05-04 10:37 | 36.93986 | 3.20720 | 10599 ft | 334 kts | 16° |
| 2026-05-04 10:37 | 36.96231 | 3.21769 | 10796 ft | 355 kts | 16° |
| 2026-05-04 10:37 | 36.98579 | 3.22874 | 11289 ft | 364 kts | 16° |
| 2026-05-04 10:39 | 37.13144 | 3.29779 | 14987 ft | 385 kts | 16° |
| 2026-05-04 10:39 | 37.15660 | 3.30971 | 15540 ft | 389 kts | 16° |
| 2026-05-04 10:39 | 37.18202 | 3.32176 | 16083 ft | 392 kts | 17° |
| 2026-05-04 10:40 | 37.20765 | 3.33393 | 16639 ft | 396 kts | 17° |
| 2026-05-04 10:40 | 37.23357 | 3.34626 | 17186 ft | 400 kts | 17° |
| 2026-05-04 10:40 | 37.25973 | 3.35870 | 17726 ft | 404 kts | 17° |
| 2026-05-04 10:40 | 37.28612 | 3.37125 | 18279 ft | 408 kts | 17° |
| 2026-05-04 10:41 | 37.31240 | 3.38377 | 18758 ft | 411 kts | 17° |
| 2026-05-04 10:41 | 37.33921 | 3.39654 | 19274 ft | 414 kts | 17° |
| 2026-05-04 10:41 | 37.36619 | 3.40942 | 19806 ft | 416 kts | 17° |
| 2026-05-04 10:41 | 37.39332 | 3.42236 | 20320 ft | 419 kts | 17° |
| 2026-05-04 10:42 | 37.42065 | 3.43542 | 20834 ft | 421 kts | 17° |
| 2026-05-04 10:42 | 37.44816 | 3.44856 | 21345 ft | 425 kts | 17° |
| 2026-05-04 10:42 | 37.47588 | 3.46182 | 21865 ft | 428 kts | 18° |
| 2026-05-04 10:42 | 37.50377 | 3.47517 | 22384 ft | 430 kts | 18° |
| 2026-05-04 10:43 | 37.53186 | 3.48862 | 22892 ft | 434 kts | 18° |
| 2026-05-04 10:44 | 37.73362 | 3.58562 | 26023 ft | 454 kts | 18° |
| 2026-05-04 10:45 | 37.76324 | 3.59991 | 26454 ft | 457 kts | 18° |
| 2026-05-04 10:45 | 37.79262 | 3.61409 | 26861 ft | 460 kts | 18° |
| 2026-05-04 10:45 | 37.82266 | 3.62861 | 27274 ft | 463 kts | 18° |
| 2026-05-04 10:45 | 37.85283 | 3.64320 | 27686 ft | 466 kts | 18° |
| 2026-05-04 10:46 | 37.88320 | 3.65790 | 28080 ft | 469 kts | 18° |
| 2026-05-04 10:46 | 37.91377 | 3.67271 | 28467 ft | 472 kts | 18° |
| 2026-05-04 10:46 | 37.94451 | 3.68762 | 28861 ft | 474 kts | 18° |
| 2026-05-04 10:46 | 37.97541 | 3.70261 | 29249 ft | 477 kts | 18° |
| 2026-05-04 10:47 | 38.00650 | 3.71771 | 29619 ft | 480 kts | 19° |
| 2026-05-04 10:47 | 38.03731 | 3.73269 | 30000 ft | 482 kts | 19° |
| 2026-05-04 10:47 | 38.06874 | 3.74799 | 30346 ft | 485 kts | 19° |
| 2026-05-04 10:47 | 38.10033 | 3.76337 | 30677 ft | 488 kts | 19° |
| 2026-05-04 10:49 | 38.32589 | 3.87370 | 32849 ft | 506 kts | 19° |
| 2026-05-04 10:49 | 38.35881 | 3.88986 | 33074 ft | 508 kts | 19° |
| 2026-05-04 10:50 | 38.39183 | 3.90609 | 33291 ft | 510 kts | 18° |
| 2026-05-04 10:51 | 38.63113 | 3.97821 | 34801 ft | 503 kts | 5° |
| 2026-05-04 10:52 | 38.66522 | 3.98474 | 35031 ft | 502 kts | 5° |
| 2026-05-04 10:52 | 38.69979 | 3.99135 | 35260 ft | 501 kts | 4° |
| 2026-05-04 10:52 | 38.73423 | 3.99793 | 35497 ft | 500 kts | 4° |
| 2026-05-04 10:54 | 38.97381 | 4.04380 | 37050 ft | 494 kts | 4° |
| 2026-05-04 10:54 | 39.00734 | 4.05025 | 37258 ft | 494 kts | 4° |
| 2026-05-04 10:56 | 39.24405 | 4.09593 | 38023 ft | 490 kts | 4° |
| 2026-05-04 10:56 | 39.27731 | 4.10234 | 38018 ft | 490 kts | 4° |
| 2026-05-04 10:57 | 39.34475 | 4.11535 | 38017 ft | 490 kts | 4° |
| 2026-05-04 10:57 | 39.41232 | 4.12842 | 38020 ft | 492 kts | 4° |
| 2026-05-04 10:58 | 39.48011 | 4.14156 | 38018 ft | 494 kts | 4° |
| 2026-05-04 10:58 | 39.54822 | 4.15479 | 38013 ft | 496 kts | 4° |
| 2026-05-04 10:59 | 39.61608 | 4.16800 | 38000 ft | 498 kts | 4° |
| 2026-05-04 10:59 | 39.68474 | 4.18137 | 37995 ft | 500 kts | 4° |
| 2026-05-04 11:00 | 39.75371 | 4.19480 | 37994 ft | 502 kts | 4° |
| 2026-05-04 11:02 | 40.03161 | 4.25564 | 38013 ft | 511 kts | 5° |
| 2026-05-04 11:05 | 40.55398 | 4.37953 | 38003 ft | 508 kts | 4° |
| 2026-05-04 11:06 | 40.62348 | 4.39615 | 38004 ft | 507 kts | 4° |
| 2026-05-04 11:06 | 40.69292 | 4.41278 | 38010 ft | 507 kts | 4° |
| 2026-05-04 11:10 | 41.17626 | 4.52972 | 38008 ft | 503 kts | 3° |
| 2026-05-04 11:12 | 41.45048 | 4.59685 | 37999 ft | 501 kts | 3° |
| 2026-05-04 11:12 | 41.51855 | 4.61360 | 38000 ft | 500 kts | 3° |
| 2026-05-04 11:13 | 41.58700 | 4.63049 | 37996 ft | 500 kts | 3° |
| 2026-05-04 11:13 | 41.65542 | 4.64740 | 38001 ft | 500 kts | 3° |
| 2026-05-04 11:14 | 41.72382 | 4.66443 | 37996 ft | 501 kts | 4° |
| 2026-05-04 11:16 | 41.99356 | 4.76883 | 38001 ft | 505 kts | 9° |
| 2026-05-04 11:16 | 42.06105 | 4.79545 | 38007 ft | 505 kts | 9° |
| 2026-05-04 11:17 | 42.12805 | 4.82195 | 38000 ft | 505 kts | 9° |
| 2026-05-04 11:19 | 42.39756 | 4.92910 | 38004 ft | 506 kts | 9° |
| 2026-05-04 11:19 | 42.46518 | 4.95613 | 38006 ft | 507 kts | 9° |
| 2026-05-04 11:20 | 42.53279 | 4.98322 | 38010 ft | 507 kts | 9° |
| 2026-05-04 11:20 | 42.60052 | 5.01042 | 38013 ft | 508 kts | 10° |
| 2026-05-04 11:22 | 42.87128 | 5.11979 | 38025 ft | 509 kts | 10° |
| 2026-05-04 11:23 | 42.93924 | 5.14735 | 38010 ft | 511 kts | 11° |
| 2026-05-04 11:25 | 43.16943 | 5.24112 | 38015 ft | 508 kts | 11° |
| 2026-05-04 11:25 | 43.23725 | 5.26884 | 38003 ft | 508 kts | 11° |
| 2026-05-04 11:27 | 43.53318 | 5.25513 | 38016 ft | 475 kts | 334° |
| 2026-05-04 11:28 | 43.59563 | 5.22665 | 38016 ft | 476 kts | 334° |
| 2026-05-04 11:28 | 43.65860 | 5.19781 | 38017 ft | 477 kts | 334° |
| 2026-05-04 11:29 | 43.72155 | 5.16887 | 37904 ft | 477 kts | 334° |
| 2026-05-04 11:29 | 43.75303 | 5.15438 | 37631 ft | 477 kts | 334° |
| 2026-05-04 11:29 | 43.78455 | 5.13986 | 37364 ft | 478 kts | 334° |
| 2026-05-04 11:31 | 44.00637 | 5.03719 | 35576 ft | 484 kts | 335° |
| 2026-05-04 11:33 | 44.23059 | 4.93259 | 33928 ft | 489 kts | 335° |
| 2026-05-04 11:33 | 44.26283 | 4.91746 | 33647 ft | 489 kts | 336° |
| 2026-05-04 11:33 | 44.29514 | 4.90229 | 33385 ft | 491 kts | 336° |
| 2026-05-04 11:34 | 44.32753 | 4.88706 | 33117 ft | 492 kts | 336° |
| 2026-05-04 11:34 | 44.36000 | 4.87178 | 32856 ft | 493 kts | 336° |
| 2026-05-04 11:34 | 44.39250 | 4.85648 | 32461 ft | 493 kts | 336° |
| 2026-05-04 11:34 | 44.42506 | 4.84112 | 31590 ft | 495 kts | 337° |
| 2026-05-04 11:35 | 44.45741 | 4.82581 | 30554 ft | 499 kts | 338° |
| 2026-05-04 11:35 | 44.49011 | 4.81036 | 29845 ft | 493 kts | 338° |
| 2026-05-04 11:35 | 44.52248 | 4.79567 | 29347 ft | 484 kts | 341° |
| 2026-05-04 11:35 | 44.55529 | 4.78640 | 28746 ft | 480 kts | 350° |
| 2026-05-04 11:36 | 44.58845 | 4.78363 | 28124 ft | 476 kts | 358° |
| 2026-05-04 11:36 | 44.62138 | 4.78648 | 27512 ft | 471 kts | 2° |
| 2026-05-04 11:36 | 44.65378 | 4.79003 | 26911 ft | 465 kts | 2° |
| 2026-05-04 11:36 | 44.68589 | 4.79331 | 26312 ft | 459 kts | 2° |
| 2026-05-04 11:37 | 44.71756 | 4.79648 | 25712 ft | 454 kts | 2° |
| 2026-05-04 11:37 | 44.74898 | 4.79964 | 25130 ft | 449 kts | 2° |
| 2026-05-04 11:37 | 44.77959 | 4.80274 | 24511 ft | 446 kts | 2° |
| 2026-05-04 11:37 | 44.81032 | 4.80586 | 23969 ft | 440 kts | 2° |
| 2026-05-04 11:38 | 44.84069 | 4.80897 | 23354 ft | 435 kts | 2° |
| 2026-05-04 11:38 | 44.87068 | 4.81206 | 22810 ft | 428 kts | 2° |
| 2026-05-04 11:38 | 44.90010 | 4.81508 | 22222 ft | 421 kts | 2° |
| 2026-05-04 11:38 | 44.92912 | 4.81807 | 21627 ft | 415 kts | 2° |
| 2026-05-04 11:39 | 44.95779 | 4.82103 | 21045 ft | 410 kts | 2° |
| 2026-05-04 11:39 | 44.98602 | 4.82394 | 20453 ft | 404 kts | 2° |
| 2026-05-04 11:40 | 45.15760 | 4.84172 | 16730 ft | 426 kts | 4° |
| 2026-05-04 11:41 | 45.18659 | 4.84870 | 16091 ft | 418 kts | 13° |
| 2026-05-04 11:41 | 45.21364 | 4.86023 | 15561 ft | 406 kts | 17° |
| 2026-05-04 11:41 | 45.24030 | 4.87186 | 14960 ft | 396 kts | 16° |
| 2026-05-04 11:41 | 45.26642 | 4.88309 | 14336 ft | 390 kts | 16° |
| 2026-05-04 11:42 | 45.29219 | 4.89357 | 13797 ft | 381 kts | 13° |
| 2026-05-04 11:42 | 45.31767 | 4.90228 | 13195 ft | 373 kts | 12° |
| 2026-05-04 11:42 | 45.34260 | 4.91088 | 12659 ft | 364 kts | 12° |
| 2026-05-04 11:42 | 45.36693 | 4.91932 | 12112 ft | 356 kts | 12° |
| 2026-05-04 11:43 | 45.39087 | 4.92765 | 11597 ft | 357 kts | 12° |
| 2026-05-04 11:43 | 45.41617 | 4.93643 | 11029 ft | 388 kts | 12° |
| 2026-05-04 11:43 | 45.44239 | 4.94558 | 10555 ft | 394 kts | 12° |
| 2026-05-04 11:43 | 45.46823 | 4.95465 | 10320 ft | 371 kts | 12° |
| 2026-05-04 11:44 | 45.49245 | 4.96319 | 10085 ft | 345 kts | 12° |
| 2026-05-04 11:44 | 45.51487 | 4.97111 | 9806 ft | 320 kts | 12° |
| 2026-05-04 11:44 | 45.53615 | 4.97850 | 9220 ft | 311 kts | 11° |
| 2026-05-04 11:44 | 45.55714 | 4.98199 | 8739 ft | 298 kts | 358° |
| 2026-05-04 11:45 | 45.57808 | 4.97974 | 8589 ft | 302 kts | 350° |
| 2026-05-04 11:45 | 45.59888 | 4.97634 | 8466 ft | 300 kts | 351° |
| 2026-05-04 11:45 | 45.61936 | 4.97325 | 8335 ft | 300 kts | 351° |
| 2026-05-04 11:45 | 45.64011 | 4.97027 | 8205 ft | 300 kts | 351° |
| 2026-05-04 11:46 | 45.66079 | 4.96737 | 7895 ft | 297 kts | 351° |
| 2026-05-04 11:46 | 45.68099 | 4.96454 | 7573 ft | 287 kts | 351° |
| 2026-05-04 11:46 | 45.70041 | 4.96182 | 7263 ft | 275 kts | 351° |
| 2026-05-04 11:46 | 45.71926 | 4.95916 | 6970 ft | 279 kts | 351° |
| 2026-05-04 11:47 | 45.73968 | 4.95614 | 6638 ft | 307 kts | 351° |
| 2026-05-04 11:47 | 45.76096 | 4.95306 | 6527 ft | 304 kts | 352° |
| 2026-05-04 11:47 | 45.78137 | 4.95018 | 6154 ft | 295 kts | 352° |
| 2026-05-04 11:47 | 45.80173 | 4.94725 | 5605 ft | 294 kts | 352° |
| 2026-05-04 11:48 | 45.82219 | 4.94435 | 5336 ft | 296 kts | 352° |
| 2026-05-04 11:48 | 45.84267 | 4.94142 | 5155 ft | 294 kts | 352° |
| 2026-05-04 11:48 | 45.86294 | 4.94108 | 5014 ft | 286 kts | 7° |
| 2026-05-04 11:48 | 45.88152 | 4.94828 | 4828 ft | 270 kts | 22° |
| 2026-05-04 11:49 | 45.89892 | 4.95775 | 4412 ft | 262 kts | 22° |
| 2026-05-04 11:49 | 45.91502 | 4.96852 | 4136 ft | 255 kts | 39° |
| 2026-05-04 11:49 | 45.92637 | 4.98698 | 3994 ft | 242 kts | 68° |
| 2026-05-04 11:49 | 45.93033 | 5.00865 | 3990 ft | 213 kts | 92° |
| 2026-05-04 11:50 | 45.93016 | 5.02898 | 3986 ft | 195 kts | 101° |
| 2026-05-04 11:50 | 45.92871 | 5.04768 | 3998 ft | 185 kts | 112° |
| 2026-05-04 11:50 | 45.92208 | 5.06235 | 4004 ft | 171 kts | 148° |
| 2026-05-04 11:50 | 45.91129 | 5.06912 | 3998 ft | 169 kts | 169° |
| 2026-05-04 11:51 | 45.89974 | 5.07163 | 3987 ft | 167 kts | 176° |
| 2026-05-04 11:51 | 45.88813 | 5.07299 | 3854 ft | 166 kts | 177° |
| 2026-05-04 11:51 | 45.87673 | 5.07445 | 3618 ft | 162 kts | 176° |
| 2026-05-04 11:51 | 45.86575 | 5.07579 | 3428 ft | 158 kts | 176° |
| 2026-05-04 11:52 | 45.85520 | 5.07711 | 3206 ft | 146 kts | 175° |
| 2026-05-04 11:52 | 45.84583 | 5.07828 | 3016 ft | 135 kts | 175° |
| 2026-05-04 11:52 | 45.83960 | 5.07905 | 2907 ft | 139 kts | 175° |
| 2026-05-04 11:52 | 45.83093 | 5.08012 | 2736 ft | 136 kts | 174° |
| 2026-05-04 11:53 | 45.82125 | 5.08132 | 2554 ft | 143 kts | 174° |
| 2026-05-04 11:53 | 45.81172 | 5.08248 | 2359 ft | 132 kts | 174° |
| 2026-05-04 11:53 | 45.80194 | 5.08369 | 2181 ft | 145 kts | 174° |
| 2026-05-04 11:53 | 45.79226 | 5.08487 | 1991 ft | 143 kts | 175° |
| 2026-05-04 11:55 | 45.72501 | 5.09309 | 812 ft | 77 kts | 174° |
| 2026-05-04 11:55 | 45.72239 | 5.09331 | 816 ft | 15 kts | 185° |
| 2026-05-04 11:56 | 45.72143 | 5.09302 | 813 ft | 13 kts | 194° |
| 2026-05-04 11:56 | 45.72079 | 5.09271 | 815 ft | 6 kts | 201° |
| 2026-05-04 11:56 | 45.72011 | 5.09231 | 817 ft | 12 kts | 204° |
| 2026-05-04 11:56 | 45.71992 | 5.09213 | 817 ft | 0 kts | 220° |
| 2026-05-04 11:57 | 45.71991 | 5.09210 | 817 ft | 1 kts | 227° |
| 2026-05-04 11:57 | 45.71987 | 5.09179 | 816 ft | 5 kts | 260° |
| 2026-05-04 11:57 | 45.71977 | 5.09098 | 815 ft | 11 kts | 260° |
| 2026-05-04 11:57 | 45.71967 | 5.08984 | 815 ft | 12 kts | 263° |
| 2026-05-04 11:58 | 45.71962 | 5.08912 | 817 ft | 13 kts | 265° |
| 2026-05-04 11:58 | 45.71957 | 5.08777 | 816 ft | 14 kts | 267° |
| 2026-05-04 11:58 | 45.71943 | 5.08652 | 811 ft | 12 kts | 264° |
| 2026-05-04 11:58 | 45.71934 | 5.08527 | 813 ft | 13 kts | 256° |
| 2026-05-04 11:59 | 45.71888 | 5.08471 | 815 ft | 6 kts | 211° |
| 2026-05-04 11:59 | 45.71874 | 5.08430 | 813 ft | 5 kts | 265° |
| 2026-05-04 11:59 | 45.71914 | 5.08244 | 814 ft | 23 kts | 291° |
| 2026-05-04 11:59 | 45.71945 | 5.08078 | 814 ft | 0 kts | 285° |